sensor_id;sensor_type;location;lat;lon;timestamp;P1;durP1;ratioP1;P2;durP2;ratioP2
33170;SDS011;19535;50.672;4.206;2022-11-20T00:00:16;68.60;;;61.38;;
33170;SDS011;19535;50.672;4.206;2022-11-20T00:02:43;67.35;;;60.45;;
33170;SDS011;19535;50.672;4.206;2022-11-20T00:05:10;64.00;;;57.55;;
33170;SDS011;19535;50.672;4.206;2022-11-20T00:07:37;63.03;;;56.63;;
33170;SDS011;19535;50.672;4.206;2022-11-20T00:10:04;61.17;;;55.15;;
33170;SDS011;19535;50.672;4.206;2022-11-20T00:12:31;61.05;;;54.80;;
33170;SDS011;19535;50.672;4.206;2022-11-20T00:14:58;60.95;;;54.70;;
33170;SDS011;19535;50.672;4.206;2022-11-20T00:17:25;58.58;;;52.40;;
33170;SDS011;19535;50.672;4.206;2022-11-20T00:19:52;57.55;;;51.67;;
33170;SDS011;19535;50.672;4.206;2022-11-20T00:22:19;54.35;;;49.03;;
33170;SDS011;19535;50.672;4.206;2022-11-20T00:24:46;55.20;;;49.67;;
33170;SDS011;19535;50.672;4.206;2022-11-20T00:27:13;57.17;;;51.58;;
33170;SDS011;19535;50.672;4.206;2022-11-20T00:29:40;54.35;;;49.05;;
33170;SDS011;19535;50.672;4.206;2022-11-20T00:32:06;54.17;;;48.67;;
33170;SDS011;19535;50.672;4.206;2022-11-20T00:34:33;51.28;;;46.15;;
33170;SDS011;19535;50.672;4.206;2022-11-20T00:37:00;50.78;;;45.80;;
33170;SDS011;19535;50.672;4.206;2022-11-20T00:39:27;50.95;;;45.90;;
33170;SDS011;19535;50.672;4.206;2022-11-20T00:41:54;49.05;;;44.35;;
33170;SDS011;19535;50.672;4.206;2022-11-20T00:44:20;49.00;;;44.20;;
33170;SDS011;19535;50.672;4.206;2022-11-20T00:46:47;48.03;;;43.38;;
33170;SDS011;19535;50.672;4.206;2022-11-20T00:49:14;47.97;;;43.28;;
33170;SDS011;19535;50.672;4.206;2022-11-20T00:51:41;48.00;;;43.33;;
33170;SDS011;19535;50.672;4.206;2022-11-20T00:54:08;48.45;;;43.60;;
33170;SDS011;19535;50.672;4.206;2022-11-20T00:56:35;46.65;;;42.05;;
33170;SDS011;19535;50.672;4.206;2022-11-20T00:59:02;44.50;;;40.25;;
33170;SDS011;19535;50.672;4.206;2022-11-20T01:01:29;45.60;;;41.25;;
33170;SDS011;19535;50.672;4.206;2022-11-20T01:03:57;45.03;;;40.63;;
33170;SDS011;19535;50.672;4.206;2022-11-20T01:06:26;44.80;;;40.58;;
33170;SDS011;19535;50.672;4.206;2022-11-20T01:08:56;44.03;;;39.88;;
33170;SDS011;19535;50.672;4.206;2022-11-20T01:11:26;45.13;;;40.83;;
33170;SDS011;19535;50.672;4.206;2022-11-20T01:13:56;42.47;;;38.65;;
33170;SDS011;19535;50.672;4.206;2022-11-20T01:16:27;41.65;;;37.65;;
33170;SDS011;19535;50.672;4.206;2022-11-20T01:19:00;40.97;;;37.28;;
33170;SDS011;19535;50.672;4.206;2022-11-20T01:23:56;40.60;;;36.80;;
33170;SDS011;19535;50.672;4.206;2022-11-20T01:26:25;40.85;;;37.00;;
33170;SDS011;19535;50.672;4.206;2022-11-20T01:28:53;39.40;;;35.58;;
33170;SDS011;19535;50.672;4.206;2022-11-20T01:31:22;40.40;;;36.70;;
33170;SDS011;19535;50.672;4.206;2022-11-20T01:33:51;38.72;;;35.20;;
33170;SDS011;19535;50.672;4.206;2022-11-20T01:36:19;38.35;;;34.83;;
33170;SDS011;19535;50.672;4.206;2022-11-20T01:38:47;39.13;;;35.65;;
33170;SDS011;19535;50.672;4.206;2022-11-20T01:41:17;36.80;;;33.53;;
33170;SDS011;19535;50.672;4.206;2022-11-20T01:44:03;38.03;;;34.60;;
33170;SDS011;19535;50.672;4.206;2022-11-20T01:46:34;37.53;;;34.17;;
33170;SDS011;19535;50.672;4.206;2022-11-20T01:49:15;36.53;;;33.22;;
33170;SDS011;19535;50.672;4.206;2022-11-20T01:51:52;38.03;;;34.40;;
33170;SDS011;19535;50.672;4.206;2022-11-20T01:54:23;36.70;;;33.40;;
33170;SDS011;19535;50.672;4.206;2022-11-20T01:56:55;35.50;;;32.33;;
33170;SDS011;19535;50.672;4.206;2022-11-20T01:59:24;37.10;;;33.70;;
33170;SDS011;19535;50.672;4.206;2022-11-20T02:01:52;34.70;;;31.60;;
33170;SDS011;19535;50.672;4.206;2022-11-20T02:04:19;34.97;;;31.92;;
33170;SDS011;19535;50.672;4.206;2022-11-20T02:06:51;35.72;;;32.53;;
33170;SDS011;19535;50.672;4.206;2022-11-20T02:09:27;33.70;;;30.70;;
33170;SDS011;19535;50.672;4.206;2022-11-20T02:11:54;35.05;;;32.05;;
33170;SDS011;19535;50.672;4.206;2022-11-20T02:14:21;34.20;;;31.20;;
33170;SDS011;19535;50.672;4.206;2022-11-20T02:16:48;32.00;;;29.27;;
33170;SDS011;19535;50.672;4.206;2022-11-20T02:24:26;31.20;;;28.50;;
33170;SDS011;19535;50.672;4.206;2022-11-20T02:26:54;32.22;;;29.30;;
33170;SDS011;19535;50.672;4.206;2022-11-20T02:29:33;31.23;;;28.58;;
33170;SDS011;19535;50.672;4.206;2022-11-20T02:32:21;32.53;;;29.80;;
33170;SDS011;19535;50.672;4.206;2022-11-20T02:34:50;30.60;;;28.02;;
33170;SDS011;19535;50.672;4.206;2022-11-20T02:37:17;30.58;;;27.90;;
33170;SDS011;19535;50.672;4.206;2022-11-20T02:39:48;30.42;;;27.92;;
33170;SDS011;19535;50.672;4.206;2022-11-20T02:42:16;28.90;;;26.33;;
33170;SDS011;19535;50.672;4.206;2022-11-20T02:44:43;29.33;;;26.67;;
33170;SDS011;19535;50.672;4.206;2022-11-20T02:47:10;28.80;;;26.38;;
33170;SDS011;19535;50.672;4.206;2022-11-20T02:49:37;29.95;;;27.25;;
33170;SDS011;19535;50.672;4.206;2022-11-20T02:52:04;30.20;;;27.48;;
33170;SDS011;19535;50.672;4.206;2022-11-20T02:54:31;29.33;;;26.83;;
33170;SDS011;19535;50.672;4.206;2022-11-20T02:56:58;28.80;;;26.30;;
33170;SDS011;19535;50.672;4.206;2022-11-20T02:59:25;28.20;;;25.80;;
33170;SDS011;19535;50.672;4.206;2022-11-20T03:01:52;28.33;;;25.83;;
33170;SDS011;19535;50.672;4.206;2022-11-20T03:04:19;28.17;;;25.77;;
33170;SDS011;19535;50.672;4.206;2022-11-20T03:06:46;27.83;;;25.42;;
33170;SDS011;19535;50.672;4.206;2022-11-20T03:09:13;27.63;;;25.23;;
33170;SDS011;19535;50.672;4.206;2022-11-20T03:11:39;27.40;;;25.10;;
33170;SDS011;19535;50.672;4.206;2022-11-20T03:14:07;27.20;;;24.90;;
33170;SDS011;19535;50.672;4.206;2022-11-20T03:16:35;26.83;;;24.58;;
33170;SDS011;19535;50.672;4.206;2022-11-20T03:19:01;25.88;;;23.67;;
33170;SDS011;19535;50.672;4.206;2022-11-20T03:21:28;25.75;;;23.58;;
33170;SDS011;19535;50.672;4.206;2022-11-20T03:23:55;26.38;;;24.05;;
33170;SDS011;19535;50.672;4.206;2022-11-20T03:26:23;26.15;;;23.95;;
33170;SDS011;19535;50.672;4.206;2022-11-20T03:28:52;26.63;;;24.25;;
33170;SDS011;19535;50.672;4.206;2022-11-20T03:31:24;26.13;;;23.92;;
33170;SDS011;19535;50.672;4.206;2022-11-20T03:33:52;25.30;;;23.08;;
33170;SDS011;19535;50.672;4.206;2022-11-20T03:36:20;26.38;;;24.15;;
33170;SDS011;19535;50.672;4.206;2022-11-20T03:38:47;24.88;;;22.88;;
33170;SDS011;19535;50.672;4.206;2022-11-20T03:41:18;25.38;;;23.25;;
33170;SDS011;19535;50.672;4.206;2022-11-20T03:44:05;23.75;;;21.85;;
33170;SDS011;19535;50.672;4.206;2022-11-20T03:46:33;26.30;;;24.13;;
33170;SDS011;19535;50.672;4.206;2022-11-20T03:49:00;23.55;;;21.52;;
33170;SDS011;19535;50.672;4.206;2022-11-20T03:51:28;25.23;;;23.02;;
33170;SDS011;19535;50.672;4.206;2022-11-20T03:53:59;24.50;;;22.50;;
33170;SDS011;19535;50.672;4.206;2022-11-20T03:56:32;23.90;;;21.90;;
33170;SDS011;19535;50.672;4.206;2022-11-20T03:59:03;24.65;;;22.55;;
33170;SDS011;19535;50.672;4.206;2022-11-20T04:01:31;24.65;;;22.48;;
33170;SDS011;19535;50.672;4.206;2022-11-20T04:03:59;24.23;;;22.08;;
33170;SDS011;19535;50.672;4.206;2022-11-20T04:06:28;22.90;;;20.95;;
33170;SDS011;19535;50.672;4.206;2022-11-20T04:08:56;24.67;;;22.58;;
33170;SDS011;19535;50.672;4.206;2022-11-20T04:11:24;22.95;;;21.05;;
33170;SDS011;19535;50.672;4.206;2022-11-20T04:13:56;22.75;;;20.85;;
33170;SDS011;19535;50.672;4.206;2022-11-20T04:16:24;23.67;;;21.67;;
33170;SDS011;19535;50.672;4.206;2022-11-20T04:18:52;22.10;;;20.30;;
33170;SDS011;19535;50.672;4.206;2022-11-20T04:21:20;21.95;;;20.05;;
33170;SDS011;19535;50.672;4.206;2022-11-20T04:23:47;22.73;;;20.67;;
33170;SDS011;19535;50.672;4.206;2022-11-20T04:26:15;22.65;;;20.75;;
33170;SDS011;19535;50.672;4.206;2022-11-20T04:28:43;21.90;;;20.00;;
33170;SDS011;19535;50.672;4.206;2022-11-20T04:31:16;22.25;;;20.30;;
33170;SDS011;19535;50.672;4.206;2022-11-20T04:33:45;21.65;;;19.75;;
33170;SDS011;19535;50.672;4.206;2022-11-20T04:36:13;22.35;;;20.45;;
33170;SDS011;19535;50.672;4.206;2022-11-20T04:38:41;21.17;;;19.38;;
33170;SDS011;19535;50.672;4.206;2022-11-20T04:41:10;22.15;;;20.25;;
33170;SDS011;19535;50.672;4.206;2022-11-20T04:43:41;21.23;;;19.42;;
33170;SDS011;19535;50.672;4.206;2022-11-20T04:46:07;20.75;;;18.98;;
33170;SDS011;19535;50.672;4.206;2022-11-20T04:48:34;21.50;;;19.70;;
33170;SDS011;19535;50.672;4.206;2022-11-20T04:51:04;21.50;;;19.60;;
33170;SDS011;19535;50.672;4.206;2022-11-20T04:53:31;20.10;;;18.45;;
33170;SDS011;19535;50.672;4.206;2022-11-20T04:55:59;20.27;;;18.58;;
33170;SDS011;19535;50.672;4.206;2022-11-20T04:58:33;20.40;;;18.73;;
33170;SDS011;19535;50.672;4.206;2022-11-20T05:01:19;20.67;;;18.85;;
33170;SDS011;19535;50.672;4.206;2022-11-20T05:03:48;21.02;;;19.23;;
33170;SDS011;19535;50.672;4.206;2022-11-20T05:06:16;20.38;;;18.67;;
33170;SDS011;19535;50.672;4.206;2022-11-20T05:08:44;19.63;;;17.92;;
33170;SDS011;19535;50.672;4.206;2022-11-20T05:11:12;19.85;;;18.15;;
33170;SDS011;19535;50.672;4.206;2022-11-20T05:13:40;20.08;;;18.27;;
33170;SDS011;19535;50.672;4.206;2022-11-20T05:16:09;19.77;;;18.08;;
33170;SDS011;19535;50.672;4.206;2022-11-20T05:18:38;19.00;;;17.33;;
33170;SDS011;19535;50.672;4.206;2022-11-20T05:21:05;18.65;;;17.05;;
33170;SDS011;19535;50.672;4.206;2022-11-20T05:23:33;18.85;;;17.35;;
33170;SDS011;19535;50.672;4.206;2022-11-20T05:26:00;19.58;;;17.92;;
33170;SDS011;19535;50.672;4.206;2022-11-20T05:28:28;20.05;;;18.27;;
33170;SDS011;19535;50.672;4.206;2022-11-20T05:30:55;18.83;;;17.23;;
33170;SDS011;19535;50.672;4.206;2022-11-20T05:33:22;18.17;;;16.67;;
33170;SDS011;19535;50.672;4.206;2022-11-20T05:35:49;18.00;;;16.50;;
33170;SDS011;19535;50.672;4.206;2022-11-20T05:38:16;18.23;;;16.67;;
33170;SDS011;19535;50.672;4.206;2022-11-20T05:40:43;18.70;;;17.10;;
33170;SDS011;19535;50.672;4.206;2022-11-20T05:43:10;18.40;;;16.90;;
33170;SDS011;19535;50.672;4.206;2022-11-20T05:45:37;18.08;;;16.58;;
33170;SDS011;19535;50.672;4.206;2022-11-20T05:48:04;17.73;;;16.35;;
33170;SDS011;19535;50.672;4.206;2022-11-20T05:50:31;18.27;;;16.77;;
33170;SDS011;19535;50.672;4.206;2022-11-20T05:52:58;18.25;;;16.70;;
33170;SDS011;19535;50.672;4.206;2022-11-20T05:55:26;17.98;;;16.48;;
33170;SDS011;19535;50.672;4.206;2022-11-20T05:57:54;17.05;;;15.55;;
33170;SDS011;19535;50.672;4.206;2022-11-20T06:00:21;16.50;;;15.15;;
33170;SDS011;19535;50.672;4.206;2022-11-20T06:02:48;17.58;;;16.10;;
33170;SDS011;19535;50.672;4.206;2022-11-20T06:05:15;17.98;;;16.40;;
33170;SDS011;19535;50.672;4.206;2022-11-20T06:07:42;15.70;;;14.40;;
33170;SDS011;19535;50.672;4.206;2022-11-20T06:10:09;15.90;;;14.55;;
33170;SDS011;19535;50.672;4.206;2022-11-20T06:12:37;15.85;;;14.50;;
33170;SDS011;19535;50.672;4.206;2022-11-20T06:15:04;15.07;;;13.77;;
33170;SDS011;19535;50.672;4.206;2022-11-20T06:17:31;14.95;;;13.70;;
33170;SDS011;19535;50.672;4.206;2022-11-20T06:19:58;15.10;;;13.80;;
33170;SDS011;19535;50.672;4.206;2022-11-20T06:22:25;15.27;;;13.98;;
33170;SDS011;19535;50.672;4.206;2022-11-20T06:24:52;15.15;;;13.85;;
33170;SDS011;19535;50.672;4.206;2022-11-20T06:27:19;14.57;;;13.38;;
33170;SDS011;19535;50.672;4.206;2022-11-20T06:29:46;14.43;;;13.23;;
33170;SDS011;19535;50.672;4.206;2022-11-20T06:32:13;13.85;;;12.70;;
33170;SDS011;19535;50.672;4.206;2022-11-20T06:34:40;14.18;;;13.05;;
33170;SDS011;19535;50.672;4.206;2022-11-20T06:37:07;14.32;;;13.15;;
33170;SDS011;19535;50.672;4.206;2022-11-20T06:39:33;14.05;;;12.85;;
33170;SDS011;19535;50.672;4.206;2022-11-20T06:42:00;15.05;;;13.75;;
33170;SDS011;19535;50.672;4.206;2022-11-20T06:44:28;14.63;;;13.43;;
33170;SDS011;19535;50.672;4.206;2022-11-20T06:46:54;13.88;;;12.73;;
33170;SDS011;19535;50.672;4.206;2022-11-20T06:49:21;14.13;;;12.93;;
33170;SDS011;19535;50.672;4.206;2022-11-20T06:51:49;14.18;;;13.00;;
33170;SDS011;19535;50.672;4.206;2022-11-20T06:54:15;14.30;;;13.10;;
33170;SDS011;19535;50.672;4.206;2022-11-20T06:56:45;13.52;;;12.43;;
33170;SDS011;19535;50.672;4.206;2022-11-20T06:59:14;14.15;;;12.95;;
33170;SDS011;19535;50.672;4.206;2022-11-20T07:01:41;13.75;;;12.63;;
33170;SDS011;19535;50.672;4.206;2022-11-20T07:04:08;13.10;;;12.00;;
33170;SDS011;19535;50.672;4.206;2022-11-20T07:06:35;12.98;;;11.88;;
33170;SDS011;19535;50.672;4.206;2022-11-20T07:09:02;12.77;;;11.68;;
33170;SDS011;19535;50.672;4.206;2022-11-20T07:11:33;12.02;;;11.02;;
33170;SDS011;19535;50.672;4.206;2022-11-20T07:14:00;13.15;;;12.05;;
33170;SDS011;19535;50.672;4.206;2022-11-20T07:16:27;13.23;;;12.10;;
33170;SDS011;19535;50.672;4.206;2022-11-20T07:18:54;12.80;;;11.80;;
33170;SDS011;19535;50.672;4.206;2022-11-20T07:21:21;12.77;;;11.70;;
33170;SDS011;19535;50.672;4.206;2022-11-20T07:23:48;12.50;;;11.50;;
33170;SDS011;19535;50.672;4.206;2022-11-20T07:26:14;12.35;;;11.35;;
33170;SDS011;19535;50.672;4.206;2022-11-20T07:28:43;11.90;;;10.93;;
33170;SDS011;19535;50.672;4.206;2022-11-20T07:31:11;12.30;;;11.30;;
33170;SDS011;19535;50.672;4.206;2022-11-20T07:33:44;12.52;;;11.43;;
33170;SDS011;19535;50.672;4.206;2022-11-20T07:36:11;12.02;;;11.02;;
33170;SDS011;19535;50.672;4.206;2022-11-20T07:38:38;12.45;;;11.45;;
33170;SDS011;19535;50.672;4.206;2022-11-20T07:41:05;12.68;;;11.60;;
33170;SDS011;19535;50.672;4.206;2022-11-20T07:43:32;11.55;;;10.65;;
33170;SDS011;19535;50.672;4.206;2022-11-20T07:46:06;10.90;;;10.02;;
33170;SDS011;19535;50.672;4.206;2022-11-20T07:48:33;11.50;;;10.50;;
33170;SDS011;19535;50.672;4.206;2022-11-20T07:50:59;12.18;;;11.18;;
33170;SDS011;19535;50.672;4.206;2022-11-20T07:53:26;11.55;;;10.57;;
33170;SDS011;19535;50.672;4.206;2022-11-20T07:55:53;13.07;;;11.98;;
33170;SDS011;19535;50.672;4.206;2022-11-20T07:58:20;12.23;;;11.13;;
33170;SDS011;19535;50.672;4.206;2022-11-20T08:00:47;11.23;;;10.32;;
33170;SDS011;19535;50.672;4.206;2022-11-20T08:03:14;10.93;;;10.02;;
33170;SDS011;19535;50.672;4.206;2022-11-20T08:05:46;11.73;;;10.73;;
33170;SDS011;19535;50.672;4.206;2022-11-20T08:08:13;11.80;;;10.80;;
33170;SDS011;19535;50.672;4.206;2022-11-20T08:10:40;12.23;;;11.20;;
33170;SDS011;19535;50.672;4.206;2022-11-20T08:13:08;12.20;;;11.20;;
33170;SDS011;19535;50.672;4.206;2022-11-20T08:15:53;12.00;;;11.00;;
33170;SDS011;19535;50.672;4.206;2022-11-20T08:18:20;11.45;;;10.45;;
33170;SDS011;19535;50.672;4.206;2022-11-20T08:21:00;11.82;;;10.82;;
33170;SDS011;19535;50.672;4.206;2022-11-20T08:23:28;11.60;;;10.57;;
33170;SDS011;19535;50.672;4.206;2022-11-20T08:25:56;11.10;;;10.13;;
33170;SDS011;19535;50.672;4.206;2022-11-20T08:28:23;11.10;;;10.20;;
33170;SDS011;19535;50.672;4.206;2022-11-20T08:30:50;10.77;;;9.88;;
33170;SDS011;19535;50.672;4.206;2022-11-20T08:33:17;10.98;;;10.07;;
33170;SDS011;19535;50.672;4.206;2022-11-20T08:35:44;10.25;;;9.45;;
33170;SDS011;19535;50.672;4.206;2022-11-20T08:38:11;11.57;;;10.57;;
33170;SDS011;19535;50.672;4.206;2022-11-20T08:40:38;10.68;;;9.77;;
33170;SDS011;19535;50.672;4.206;2022-11-20T08:43:05;10.60;;;9.80;;
33170;SDS011;19535;50.672;4.206;2022-11-20T08:45:32;11.13;;;10.13;;
33170;SDS011;19535;50.672;4.206;2022-11-20T08:48:01;14.30;;;13.13;;
33170;SDS011;19535;50.672;4.206;2022-11-20T08:50:29;26.48;;;24.13;;
33170;SDS011;19535;50.672;4.206;2022-11-20T08:53:02;25.58;;;23.08;;
33170;SDS011;19535;50.672;4.206;2022-11-20T08:55:29;25.48;;;23.25;;
33170;SDS011;19535;50.672;4.206;2022-11-20T08:57:56;23.48;;;21.23;;
33170;SDS011;19535;50.672;4.206;2022-11-20T09:00:23;22.75;;;20.63;;
33170;SDS011;19535;50.672;4.206;2022-11-20T09:02:50;22.08;;;20.08;;
33170;SDS011;19535;50.672;4.206;2022-11-20T09:05:18;21.13;;;19.23;;
33170;SDS011;19535;50.672;4.206;2022-11-20T09:07:44;19.23;;;17.50;;
33170;SDS011;19535;50.672;4.206;2022-11-20T09:10:11;18.30;;;16.70;;
33170;SDS011;19535;50.672;4.206;2022-11-20T09:12:54;18.13;;;16.52;;
33170;SDS011;19535;50.672;4.206;2022-11-20T09:15:21;17.58;;;15.98;;
33170;SDS011;19535;50.672;4.206;2022-11-20T09:17:52;16.63;;;15.20;;
33170;SDS011;19535;50.672;4.206;2022-11-20T09:20:24;16.35;;;14.90;;
33170;SDS011;19535;50.672;4.206;2022-11-20T09:22:52;15.70;;;14.18;;
33170;SDS011;19535;50.672;4.206;2022-11-20T09:25:19;14.88;;;13.57;;
33170;SDS011;19535;50.672;4.206;2022-11-20T09:27:47;15.35;;;14.05;;
33170;SDS011;19535;50.672;4.206;2022-11-20T09:30:14;13.73;;;12.63;;
33170;SDS011;19535;50.672;4.206;2022-11-20T09:32:41;13.68;;;12.43;;
33170;SDS011;19535;50.672;4.206;2022-11-20T09:35:09;13.65;;;12.45;;
33170;SDS011;19535;50.672;4.206;2022-11-20T09:37:37;13.60;;;12.40;;
33170;SDS011;19535;50.672;4.206;2022-11-20T09:40:04;13.20;;;12.18;;
33170;SDS011;19535;50.672;4.206;2022-11-20T09:50:34;12.52;;;11.43;;
33170;SDS011;19535;50.672;4.206;2022-11-20T09:53:19;12.05;;;10.95;;
33170;SDS011;19535;50.672;4.206;2022-11-20T09:55:53;11.70;;;10.70;;
33170;SDS011;19535;50.672;4.206;2022-11-20T09:58:25;14.85;;;13.55;;
33170;SDS011;19535;50.672;4.206;2022-11-20T10:01:15;20.20;;;18.40;;
33170;SDS011;19535;50.672;4.206;2022-11-20T10:03:59;19.42;;;17.73;;
33170;SDS011;19535;50.672;4.206;2022-11-20T10:06:32;18.75;;;17.05;;
33170;SDS011;19535;50.672;4.206;2022-11-20T10:20:02;15.38;;;13.95;;
33170;SDS011;19535;50.672;4.206;2022-11-20T10:25:54;14.13;;;12.88;;
33170;SDS011;19535;50.672;4.206;2022-11-20T10:31:26;13.45;;;12.32;;
33170;SDS011;19535;50.672;4.206;2022-11-20T10:34:01;12.23;;;11.20;;
33170;SDS011;19535;50.672;4.206;2022-11-20T10:36:49;11.70;;;10.75;;
33170;SDS011;19535;50.672;4.206;2022-11-20T10:42:01;11.00;;;10.10;;
33170;SDS011;19535;50.672;4.206;2022-11-20T10:44:28;12.02;;;10.95;;
33170;SDS011;19535;50.672;4.206;2022-11-20T10:47:21;12.00;;;11.00;;
33170;SDS011;19535;50.672;4.206;2022-11-20T10:49:49;19.10;;;17.38;;
33170;SDS011;19535;50.672;4.206;2022-11-20T10:52:44;17.55;;;15.93;;
33170;SDS011;19535;50.672;4.206;2022-11-20T10:55:30;17.15;;;15.27;;
33170;SDS011;19535;50.672;4.206;2022-11-20T10:58:10;16.20;;;14.77;;
33170;SDS011;19535;50.672;4.206;2022-11-20T11:00:37;14.45;;;13.23;;
33170;SDS011;19535;50.672;4.206;2022-11-20T11:03:13;14.50;;;13.13;;
33170;SDS011;19535;50.672;4.206;2022-11-20T11:05:54;12.93;;;11.82;;
33170;SDS011;19535;50.672;4.206;2022-11-20T11:08:39;14.02;;;12.85;;
33170;SDS011;19535;50.672;4.206;2022-11-20T11:13:52;12.27;;;11.20;;
33170;SDS011;19535;50.672;4.206;2022-11-20T11:16:24;12.10;;;10.90;;
33170;SDS011;19535;50.672;4.206;2022-11-20T11:19:02;11.38;;;10.23;;
33170;SDS011;19535;50.672;4.206;2022-11-20T11:21:36;10.85;;;9.75;;
33170;SDS011;19535;50.672;4.206;2022-11-20T11:24:15;10.45;;;9.65;;
33170;SDS011;19535;50.672;4.206;2022-11-20T11:27:11;10.38;;;9.52;;
33170;SDS011;19535;50.672;4.206;2022-11-20T11:29:43;10.30;;;9.40;;
33170;SDS011;19535;50.672;4.206;2022-11-20T11:32:20;9.88;;;8.98;;
33170;SDS011;19535;50.672;4.206;2022-11-20T11:35:00;10.43;;;9.52;;
33170;SDS011;19535;50.672;4.206;2022-11-20T11:37:32;9.20;;;8.38;;
33170;SDS011;19535;50.672;4.206;2022-11-20T11:40:05;9.55;;;8.65;;
33170;SDS011;19535;50.672;4.206;2022-11-20T11:42:53;8.43;;;7.72;;
33170;SDS011;19535;50.672;4.206;2022-11-20T11:45:23;9.30;;;8.40;;
33170;SDS011;19535;50.672;4.206;2022-11-20T11:47:50;8.98;;;8.18;;
33170;SDS011;19535;50.672;4.206;2022-11-20T11:50:19;8.60;;;7.80;;
33170;SDS011;19535;50.672;4.206;2022-11-20T11:52:56;8.80;;;8.10;;
33170;SDS011;19535;50.672;4.206;2022-11-20T11:55:38;8.93;;;8.15;;
33170;SDS011;19535;50.672;4.206;2022-11-20T12:04:16;8.05;;;7.32;;
33170;SDS011;19535;50.672;4.206;2022-11-20T12:06:48;7.05;;;6.55;;
33170;SDS011;19535;50.672;4.206;2022-11-20T12:09:23;7.57;;;6.97;;
33170;SDS011;19535;50.672;4.206;2022-11-20T12:12:44;7.60;;;6.90;;
33170;SDS011;19535;50.672;4.206;2022-11-20T12:14:54;7.65;;;6.95;;
33170;SDS011;19535;50.672;4.206;2022-11-20T12:17:22;6.97;;;6.38;;
33170;SDS011;19535;50.672;4.206;2022-11-20T12:19:49;7.50;;;6.70;;
33170;SDS011;19535;50.672;4.206;2022-11-20T12:24:53;7.07;;;6.47;;
33170;SDS011;19535;50.672;4.206;2022-11-20T12:30:11;6.83;;;6.23;;
33170;SDS011;19535;50.672;4.206;2022-11-20T12:32:54;7.03;;;6.43;;
33170;SDS011;19535;50.672;4.206;2022-11-20T12:43:54;6.30;;;5.70;;
33170;SDS011;19535;50.672;4.206;2022-11-20T12:46:53;6.65;;;6.05;;
33170;SDS011;19535;50.672;4.206;2022-11-20T12:49:40;6.75;;;6.25;;
33170;SDS011;19535;50.672;4.206;2022-11-20T12:52:21;6.55;;;5.95;;
33170;SDS011;19535;50.672;4.206;2022-11-20T13:00:20;6.05;;;5.60;;
33170;SDS011;19535;50.672;4.206;2022-11-20T13:08:24;5.75;;;5.35;;
33170;SDS011;19535;50.672;4.206;2022-11-20T13:11:03;6.82;;;6.22;;
33170;SDS011;19535;50.672;4.206;2022-11-20T13:16:31;6.47;;;5.97;;
33170;SDS011;19535;50.672;4.206;2022-11-20T13:19:13;6.00;;;5.50;;
33170;SDS011;19535;50.672;4.206;2022-11-20T13:21:43;5.90;;;5.40;;
33170;SDS011;19535;50.672;4.206;2022-11-20T13:29:33;5.25;;;4.75;;
33170;SDS011;19535;50.672;4.206;2022-11-20T13:32:12;5.38;;;4.97;;
33170;SDS011;19535;50.672;4.206;2022-11-20T13:35:03;5.50;;;5.10;;
33170;SDS011;19535;50.672;4.206;2022-11-20T13:37:33;4.95;;;4.55;;
33170;SDS011;19535;50.672;4.206;2022-11-20T13:40:21;5.22;;;4.80;;
33170;SDS011;19535;50.672;4.206;2022-11-20T13:43:04;6.45;;;4.82;;
33170;SDS011;19535;50.672;4.206;2022-11-20T13:45:41;5.18;;;4.68;;
33170;SDS011;19535;50.672;4.206;2022-11-20T13:48:20;5.30;;;4.80;;
33170;SDS011;19535;50.672;4.206;2022-11-20T14:01:59;7.15;;;6.55;;
33170;SDS011;19535;50.672;4.206;2022-11-20T14:04:28;11.90;;;10.75;;
33170;SDS011;19535;50.672;4.206;2022-11-20T14:06:59;10.18;;;9.27;;
33170;SDS011;19535;50.672;4.206;2022-11-20T14:09:30;9.23;;;8.48;;
33170;SDS011;19535;50.672;4.206;2022-11-20T14:11:58;9.73;;;8.73;;
33170;SDS011;19535;50.672;4.206;2022-11-20T14:14:26;8.63;;;7.95;;
33170;SDS011;19535;50.672;4.206;2022-11-20T14:17:06;8.85;;;8.15;;
33170;SDS011;19535;50.672;4.206;2022-11-20T14:19:51;8.68;;;7.97;;
33170;SDS011;19535;50.672;4.206;2022-11-20T14:22:23;7.70;;;7.10;;
33170;SDS011;19535;50.672;4.206;2022-11-20T14:27:42;11.10;;;10.10;;
33170;SDS011;19535;50.672;4.206;2022-11-20T14:30:12;13.30;;;12.18;;
33170;SDS011;19535;50.672;4.206;2022-11-20T14:35:08;12.27;;;11.18;;
33170;SDS011;19535;50.672;4.206;2022-11-20T14:37:37;12.27;;;11.27;;
33170;SDS011;19535;50.672;4.206;2022-11-20T14:43:16;12.63;;;11.60;;
33170;SDS011;19535;50.672;4.206;2022-11-20T14:48:29;13.93;;;12.73;;
33170;SDS011;19535;50.672;4.206;2022-11-20T14:51:32;14.77;;;13.45;;
33170;SDS011;19535;50.672;4.206;2022-11-20T14:54:20;15.52;;;14.23;;
33170;SDS011;19535;50.672;4.206;2022-11-20T14:56:55;15.25;;;13.77;;
33170;SDS011;19535;50.672;4.206;2022-11-20T14:59:26;13.80;;;12.70;;
33170;SDS011;19535;50.672;4.206;2022-11-20T15:01:58;14.70;;;13.50;;
33170;SDS011;19535;50.672;4.206;2022-11-20T15:04:25;14.20;;;12.90;;
33170;SDS011;19535;50.672;4.206;2022-11-20T15:06:54;14.10;;;13.00;;
33170;SDS011;19535;50.672;4.206;2022-11-20T15:09:22;12.90;;;11.80;;
33170;SDS011;19535;50.672;4.206;2022-11-20T15:11:56;13.38;;;12.38;;
33170;SDS011;19535;50.672;4.206;2022-11-20T15:14:24;13.00;;;11.93;;
33170;SDS011;19535;50.672;4.206;2022-11-20T15:16:52;13.27;;;12.15;;
33170;SDS011;19535;50.672;4.206;2022-11-20T15:19:20;10.70;;;9.90;;
33170;SDS011;19535;50.672;4.206;2022-11-20T15:21:51;11.32;;;10.43;;
33170;SDS011;19535;50.672;4.206;2022-11-20T15:24:18;10.10;;;9.30;;
33170;SDS011;19535;50.672;4.206;2022-11-20T15:26:46;9.38;;;8.68;;
33170;SDS011;19535;50.672;4.206;2022-11-20T15:29:14;8.57;;;7.97;;
33170;SDS011;19535;50.672;4.206;2022-11-20T15:31:45;9.02;;;8.32;;
33170;SDS011;19535;50.672;4.206;2022-11-20T15:34:12;9.05;;;8.35;;
33170;SDS011;19535;50.672;4.206;2022-11-20T15:36:42;9.10;;;8.32;;
33170;SDS011;19535;50.672;4.206;2022-11-20T15:39:09;8.10;;;7.40;;
33170;SDS011;19535;50.672;4.206;2022-11-20T15:41:38;7.25;;;6.75;;
33170;SDS011;19535;50.672;4.206;2022-11-20T15:44:05;7.50;;;6.90;;
33170;SDS011;19535;50.672;4.206;2022-11-20T15:46:33;7.15;;;6.55;;
33170;SDS011;19535;50.672;4.206;2022-11-20T15:49:04;6.32;;;5.82;;
33170;SDS011;19535;50.672;4.206;2022-11-20T15:51:36;6.63;;;6.03;;
33170;SDS011;19535;50.672;4.206;2022-11-20T15:54:11;6.38;;;5.88;;
33170;SDS011;19535;50.672;4.206;2022-11-20T15:56:41;5.55;;;5.15;;
33170;SDS011;19535;50.672;4.206;2022-11-20T15:59:08;6.55;;;5.95;;
33170;SDS011;19535;50.672;4.206;2022-11-20T16:01:35;6.13;;;5.63;;
33170;SDS011;19535;50.672;4.206;2022-11-20T16:04:02;6.05;;;5.55;;
33170;SDS011;19535;50.672;4.206;2022-11-20T16:06:31;7.80;;;7.10;;
33170;SDS011;19535;50.672;4.206;2022-11-20T16:08:58;12.23;;;11.23;;
33170;SDS011;19535;50.672;4.206;2022-11-20T16:11:24;10.77;;;9.98;;
33170;SDS011;19535;50.672;4.206;2022-11-20T16:13:51;9.73;;;8.93;;
33170;SDS011;19535;50.672;4.206;2022-11-20T16:16:37;8.98;;;8.30;;
33170;SDS011;19535;50.672;4.206;2022-11-20T16:19:05;8.98;;;8.27;;
33170;SDS011;19535;50.672;4.206;2022-11-20T16:21:32;8.02;;;7.43;;
33170;SDS011;19535;50.672;4.206;2022-11-20T16:23:59;7.85;;;7.25;;